createdAt,value
2019-05-28T15:47:47.465Z,21.15
2019-05-28T15:50:18.153Z,21.54
2019-05-28T15:52:49.183Z,20.88
2019-05-28T15:55:20.072Z,21.20
2019-05-28T15:57:50.307Z,21.27
2019-05-28T16:00:23.993Z,21.66
2019-05-28T16:02:54.414Z,21.67
2019-05-28T16:05:24.990Z,21.23
2019-05-28T16:07:55.273Z,20.69
2019-05-28T16:10:25.434Z,22.50
2019-05-28T16:12:55.736Z,25.15
2019-05-28T16:15:26.038Z,26.82
2019-05-28T16:17:56.212Z,28.17
2019-05-28T16:20:34.721Z,28.03
2019-05-28T16:23:05.400Z,27.17
2019-05-28T16:25:36.319Z,26.87
2019-05-28T16:28:07.312Z,26.94
2019-05-28T16:30:38.060Z,27.05
2019-05-28T16:33:08.811Z,25.21
2019-05-28T16:35:39.501Z,25.24
2019-05-28T16:38:10.339Z,25.18
2019-05-28T16:40:41.122Z,26.77
2019-05-28T16:43:11.885Z,27.97
2019-05-28T16:45:42.442Z,29.87
2019-05-28T16:48:13.134Z,30.30
2019-05-28T16:50:44.639Z,31.02
2019-05-28T16:53:15.283Z,32.07
2019-05-28T16:55:45.808Z,30.30
2019-05-28T16:58:16.469Z,27.84
2019-05-28T17:00:47.022Z,25.35
2019-05-28T17:03:17.650Z,23.88
2019-05-28T17:05:48.350Z,23.18
2019-05-28T17:08:18.898Z,22.17
2019-05-28T17:10:49.215Z,21.94
2019-05-28T17:13:19.414Z,21.26
2019-05-28T17:15:49.851Z,20.51
2019-05-28T17:18:20.105Z,20.22
2019-05-28T17:20:50.321Z,19.74
2019-05-28T17:23:20.573Z,19.30
2019-05-28T17:25:50.900Z,18.88
2019-05-28T17:28:21.072Z,18.95
2019-05-28T17:30:51.337Z,18.71
2019-05-28T17:33:21.620Z,18.75
2019-05-28T17:35:52.397Z,19.02
2019-05-28T17:38:22.573Z,19.88
2019-05-28T17:40:52.856Z,19.29
2019-05-28T17:43:23.253Z,18.94
2019-05-28T17:45:54.725Z,18.85
2019-05-28T17:48:28.330Z,18.75
2019-05-28T17:50:58.629Z,18.47
2019-05-28T17:53:28.841Z,18.69
2019-05-28T17:55:59.101Z,18.55
2019-05-28T17:58:31.114Z,18.71
2019-05-28T18:01:01.442Z,18.28
2019-05-28T18:03:35.119Z,19.47
2019-05-28T18:06:04.092Z,21.19
2019-05-28T18:08:34.385Z,22.28
2019-05-28T18:11:05.103Z,23.58
2019-05-28T18:13:35.554Z,25.16
2019-05-28T18:16:06.975Z,26.43
2019-05-28T18:18:37.322Z,27.69
2019-05-28T18:21:07.501Z,29.26
2019-05-28T18:23:37.729Z,29.57
2019-05-28T18:26:09.130Z,30.41
2019-05-28T18:28:40.047Z,31.34
2019-05-28T18:31:10.782Z,32.30
2019-05-28T18:33:42.417Z,33.36
2019-05-28T18:36:12.975Z,34.21
2019-05-28T18:38:43.825Z,33.34
2019-05-28T18:41:21.532Z,31.56
2019-05-28T18:43:46.677Z,30.12
2019-05-28T18:46:17.346Z,28.76
2019-05-28T18:48:47.957Z,28.81
2019-05-28T18:51:18.452Z,30.47
2019-05-28T18:53:49.084Z,32.43
2019-05-28T18:56:19.759Z,34.17
2019-05-28T18:58:50.317Z,35.82
2019-05-28T19:01:20.930Z,37.32
2019-05-28T19:03:51.583Z,38.38
2019-05-28T19:06:22.443Z,39.25
2019-05-28T19:08:53.219Z,39.90
2019-05-28T19:11:36.767Z,40.39
2019-05-28T19:16:42.124Z,42.69
2019-05-28T19:19:12.956Z,43.49
2019-05-28T19:21:43.747Z,44.13
2019-05-28T19:24:14.597Z,44.78
2019-05-28T19:26:45.419Z,45.37
2019-05-28T19:29:16.295Z,45.91
2019-05-28T19:31:47.935Z,46.48
2019-05-28T19:34:18.982Z,47.04
2019-05-28T19:36:49.959Z,47.52
2019-05-28T19:39:22.018Z,48.02
2019-05-28T19:41:54.842Z,48.46
2019-05-28T19:44:25.768Z,49.00
2019-05-28T19:46:56.432Z,49.48
2019-05-28T19:49:28.305Z,49.94
2019-05-28T19:52:01.256Z,50.46
2019-05-28T19:54:32.123Z,50.86
2019-05-28T19:57:02.758Z,51.33
2019-05-28T19:59:34.237Z,51.79
2019-05-28T20:02:04.940Z,52.40
2019-05-28T20:04:35.675Z,52.95
2019-05-28T20:07:07.800Z,55.23
2019-05-28T20:09:38.717Z,55.10
2019-05-28T20:12:12.639Z,55.18
2019-05-28T20:14:42.325Z,55.31
2019-05-28T20:17:13.025Z,55.44
2019-05-28T20:19:43.850Z,55.69
2019-05-28T20:22:14.896Z,55.86
2019-05-28T20:24:48.043Z,56.10
2019-05-28T20:27:21.400Z,56.24
2019-05-28T20:29:52.057Z,56.45
2019-05-28T20:32:22.678Z,56.69
2019-05-28T20:34:53.552Z,56.97
2019-05-28T20:37:24.302Z,59.22
2019-05-28T20:42:36.498Z,59.40
2019-05-28T20:45:08.695Z,59.29
2019-05-28T20:47:39.536Z,59.32
2019-05-28T20:50:11.799Z,59.28
2019-05-28T20:52:46.589Z,59.43
2019-05-28T20:55:17.691Z,59.63
2019-05-28T20:57:49.168Z,59.82
2019-05-28T21:00:20.320Z,59.92
2019-05-28T21:02:51.730Z,60.06
2019-05-28T21:05:22.339Z,60.21
2019-05-28T21:07:54.262Z,60.47
2019-05-28T21:10:25.210Z,60.72
2019-05-28T21:12:56.852Z,60.90
2019-05-28T21:15:27.816Z,61.04
2019-05-28T21:17:59.484Z,61.34
2019-05-28T21:20:30.032Z,61.49
2019-05-28T21:23:00.634Z,61.76
2019-05-28T21:25:31.382Z,61.88
2019-05-28T21:28:05.958Z,62.02
2019-05-28T21:30:36.468Z,62.21
2019-05-28T21:33:08.100Z,62.34
2019-05-28T21:35:38.904Z,62.38
2019-05-28T21:38:10.172Z,62.53
2019-05-28T21:40:40.727Z,62.72
2019-05-28T21:43:10.984Z,62.69
2019-05-28T21:45:46.731Z,62.84
2019-05-28T21:48:17.195Z,63.15
2019-05-28T21:50:47.607Z,63.28
2019-05-28T21:55:53.118Z,64.06
2019-05-28T21:58:23.528Z,64.16
2019-05-28T22:01:00.163Z,64.39
2019-05-28T22:03:30.397Z,64.41
2019-05-28T22:06:01.452Z,64.52
2019-05-28T22:08:31.775Z,64.61
2019-05-28T22:11:02.114Z,64.60
2019-05-28T22:13:32.328Z,64.75
2019-05-28T22:16:02.641Z,64.98
2019-05-28T22:18:32.986Z,65.23
2019-05-28T22:21:04.415Z,65.48
2019-05-28T22:23:34.809Z,65.56
2019-05-28T22:26:05.179Z,65.69
2019-05-28T22:28:35.396Z,65.69
2019-05-28T22:31:08.142Z,65.88
2019-05-28T22:33:38.446Z,65.86
2019-05-28T22:36:08.754Z,65.96
2019-05-28T22:38:39.129Z,66.16
2019-05-28T22:41:09.334Z,66.39
2019-05-28T22:43:40.103Z,66.41
2019-05-28T22:46:10.244Z,66.57
2019-05-28T22:48:40.487Z,66.82
2019-05-28T22:51:10.740Z,67.12
2019-05-28T22:53:41.065Z,67.29
2019-05-28T22:56:17.085Z,67.37
2019-05-28T22:58:47.355Z,67.32
2019-05-28T23:01:17.467Z,67.33
2019-05-28T23:03:47.810Z,67.53
2019-05-28T23:06:18.111Z,67.59
2019-05-28T23:08:48.423Z,67.65
2019-05-28T23:11:18.577Z,67.83
2019-05-28T23:13:48.756Z,68.03
2019-05-28T23:16:19.147Z,68.19
2019-05-28T23:18:49.313Z,68.80
2019-05-28T23:21:19.585Z,68.66
2019-05-28T23:23:49.664Z,68.68
2019-05-28T23:26:19.940Z,68.85
2019-05-28T23:28:50.093Z,68.94
2019-05-28T23:31:20.356Z,68.94
2019-05-28T23:33:50.502Z,69.02
2019-05-28T23:36:20.791Z,69.06
2019-05-28T23:38:50.892Z,69.08
2019-05-28T23:41:21.127Z,69.16
2019-05-28T23:44:01.453Z,69.34
2019-05-28T23:46:23.259Z,69.51
2019-05-28T23:48:53.367Z,69.66
2019-05-28T23:51:23.634Z,69.69
2019-05-28T23:53:53.838Z,69.92
2019-05-28T23:56:24.484Z,69.95
2019-05-28T23:58:54.615Z,70.17
